Time;durP1;ratioP1;P1;durP2;ratioP2;P2;SDS_P1;SDS_P2;PMS_P1;PMS_P2;Temp;Humidity;BMP_temperature;BMP_pressure;BME280_temperature;BME280_humidity;BME280_pressure;Samples;Min_cycle;Max_cycle;Signal;HPM_P1;HPM_P2
2021/07/05 00:02:05;;;;;;;18.95;15.32;;;24.90;99.40;;;;;;4866851;29;20495;-94
2021/07/05 00:04:31;;;;;;;19.35;16.23;;;24.90;99.40;;;;;;4882703;29;20189;-95
2021/07/05 00:06:56;;;;;;;19.38;15.77;;;24.90;99.40;;;;;;4882215;29;20050;-96
2021/07/05 00:09:22;;;;;;;19.30;15.95;;;24.90;99.40;;;;;;4899165;29;20236;-95
2021/07/05 00:11:47;;;;;;;21.17;16.60;;;24.90;99.40;;;;;;4866583;29;20115;-94
2021/07/05 00:14:14;;;;;;;20.15;16.02;;;24.90;99.40;;;;;;4866581;29;20756;-95
2021/07/05 00:16:40;;;;;;;20.33;17.02;;;24.90;99.40;;;;;;4866780;29;20064;-94
2021/07/05 00:19:09;;;;;;;19.50;16.70;;;24.90;99.50;;;;;;4881768;29;20056;-95
2021/07/05 00:21:34;;;;;;;23.30;17.98;;;24.90;99.50;;;;;;4898734;29;20037;-96
2021/07/05 00:24:00;;;;;;;20.60;16.65;;;24.90;99.50;;;;;;4881661;29;20503;-95
2021/07/05 00:26:26;;;;;;;21.17;16.63;;;24.90;99.50;;;;;;4882227;29;20041;-95
2021/07/05 00:28:52;;;;;;;20.90;16.27;;;24.90;99.50;;;;;;4882303;29;20044;-95
2021/07/05 00:31:17;;;;;;;20.13;16.63;;;24.90;99.50;;;;;;4866281;29;20074;-96
2021/07/05 00:33:43;;;;;;;19.60;16.75;;;24.90;99.50;;;;;;4882488;29;20032;-95
2021/07/05 00:36:09;;;;;;;20.75;17.02;;;24.90;99.60;;;;;;4899221;29;20028;-95
2021/07/05 00:38:34;;;;;;;20.80;16.88;;;24.90;99.60;;;;;;4869173;29;20044;-94
2021/07/05 00:41:00;;;;;;;20.60;16.70;;;24.90;99.60;;;;;;4888108;29;20133;-94
2021/07/05 00:43:26;;;;;;;19.98;16.25;;;24.90;99.60;;;;;;4879527;29;20028;-94
2021/07/05 00:45:51;;;;;;;19.63;16.25;;;24.90;99.60;;;;;;4873382;29;20044;-94
2021/07/05 00:48:17;;;;;;;21.13;16.83;;;24.90;99.60;;;;;;4902807;29;20045;-93
2021/07/05 00:50:43;;;;;;;20.95;17.52;;;24.90;99.70;;;;;;4903450;29;20468;-95
2021/07/05 00:53:08;;;;;;;20.35;17.45;;;24.90;99.70;;;;;;4870981;29;20471;-94
2021/07/05 00:55:34;;;;;;;21.25;16.80;;;24.90;99.70;;;;;;4887090;29;20036;-94
2021/07/05 00:58:00;;;;;;;22.63;18.02;;;24.90;99.70;;;;;;4870704;29;20047;-92
2021/07/05 01:00:27;;;;;;;20.05;16.30;;;24.90;99.70;;;;;;4870334;29;20073;-95
2021/07/05 01:02:54;;;;;;;19.75;16.38;;;24.90;99.70;;;;;;4885177;29;20057;-94
2021/07/05 01:05:21;;;;;;;19.00;15.98;;;24.90;99.70;;;;;;4869520;29;20169;-95
2021/07/05 01:07:48;;;;;;;19.80;16.73;;;24.90;99.70;;;;;;4884979;29;20036;-94
2021/07/05 01:10:15;;;;;;;22.05;17.42;;;24.90;99.70;;;;;;4901543;29;20056;-94
2021/07/05 01:12:42;;;;;;;21.42;17.15;;;24.90;99.70;;;;;;4901848;29;20088;-94
2021/07/05 01:15:09;;;;;;;19.92;16.00;;;24.90;99.70;;;;;;4869402;29;20551;-93
2021/07/05 01:17:35;;;;;;;20.48;16.10;;;24.90;99.70;;;;;;4901681;29;20036;-94
2021/07/05 01:20:03;;;;;;;18.45;15.60;;;24.90;99.70;;;;;;4869447;29;20033;-95
2021/07/05 01:22:28;;;;;;;18.02;14.82;;;24.90;99.80;;;;;;4901546;29;20036;-94
2021/07/05 01:24:54;;;;;;;19.08;15.73;;;24.90;99.70;;;;;;4885333;29;20395;-93
2021/07/05 01:27:21;;;;;;;18.27;14.90;;;24.90;99.70;;;;;;4882706;29;20041;-93
2021/07/05 01:29:47;;;;;;;16.52;13.90;;;24.90;99.70;;;;;;4869653;29;20156;-94
2021/07/05 01:32:13;;;;;;;19.00;15.38;;;24.90;99.70;;;;;;4884311;29;20046;-96
2021/07/05 01:34:39;;;;;;;17.35;14.05;;;24.90;99.70;;;;;;4884754;29;20040;-95
2021/07/05 01:37:06;;;;;;;17.80;14.55;;;24.90;99.70;;;;;;4900938;29;20379;-93
2021/07/05 01:39:32;;;;;;;16.48;14.02;;;24.90;99.70;;;;;;4884228;29;20033;-95
2021/07/05 01:41:58;;;;;;;15.75;13.52;;;24.90;99.70;;;;;;4884192;29;20042;-94
2021/07/05 01:44:23;;;;;;;17.25;14.88;;;24.90;99.70;;;;;;4900636;29;20168;-95
2021/07/05 01:46:49;;;;;;;16.05;14.25;;;24.90;99.70;;;;;;4884456;29;20155;-95
2021/07/05 01:49:15;;;;;;;15.45;13.82;;;24.90;99.70;;;;;;4908614;29;20040;-94
2021/07/05 01:51:40;;;;;;;16.83;14.15;;;24.90;99.80;;;;;;4909236;29;20071;-94
2021/07/05 01:54:07;;;;;;;17.02;13.70;;;24.90;99.80;;;;;;4882143;29;20057;-94
2021/07/05 01:56:32;;;;;;;15.88;13.48;;;24.90;99.80;;;;;;4900409;29;20056;-94
2021/07/05 01:58:59;;;;;;;18.02;14.43;;;24.90;99.80;;;;;;4885442;29;20058;-94
2021/07/05 02:01:24;;;;;;;14.77;12.38;;;24.90;99.80;;;;;;4884298;29;20056;-96
2021/07/05 02:03:50;;;;;;;16.02;13.35;;;24.90;99.80;;;;;;4869088;29;20043;-94
2021/07/05 02:06:16;;;;;;;14.52;13.00;;;24.90;99.80;;;;;;4868396;29;20506;-95
2021/07/05 02:08:42;;;;;;;15.07;12.93;;;24.90;99.80;;;;;;4900265;29;20394;-93
2021/07/05 02:11:08;;;;;;;14.63;12.70;;;24.90;99.80;;;;;;4852859;29;20127;-95
2021/07/05 02:13:37;;;;;;;15.18;12.10;;;24.90;99.80;;;;;;4868114;29;20037;-94
2021/07/05 02:16:04;;;;;;;15.10;12.38;;;24.80;99.70;;;;;;4900791;29;20036;-93
2021/07/05 02:18:31;;;;;;;15.55;12.45;;;24.90;99.80;;;;;;4883808;29;20045;-93
2021/07/05 02:21:00;;;;;;;14.85;12.27;;;24.90;99.80;;;;;;4883977;29;20028;-93
2021/07/05 02:23:26;;;;;;;14.50;12.30;;;24.90;99.80;;;;;;4900092;29;20029;-93
2021/07/05 02:25:52;;;;;;;13.07;10.95;;;24.90;99.70;;;;;;4883450;29;20041;-94
2021/07/05 02:28:30;;;;;;;14.55;11.68;;;24.90;99.70;;;;;;4852719;29;20029;-94
2021/07/05 02:30:56;;;;;;;15.43;12.30;;;24.90;99.70;;;;;;4883637;29;20085;-93
2021/07/05 02:33:25;;;;;;;12.88;10.77;;;24.80;99.90;;;;;;4867779;29;20028;-93
2021/07/05 02:35:52;;;;;;;13.85;11.55;;;24.90;99.70;;;;;;4883310;29;20036;-95
2021/07/05 02:38:19;;;;;;;14.48;11.27;;;24.80;99.70;;;;;;4868115;29;20119;-93
2021/07/05 02:40:47;;;;;;;12.88;11.07;;;24.80;99.70;;;;;;4883923;29;20028;-92
2021/07/05 02:43:14;;;;;;;13.57;10.52;;;24.90;99.70;;;;;;4867963;29;20036;-91
2021/07/05 02:45:42;;;;;;;12.98;10.25;;;24.80;99.70;;;;;;4883826;29;20484;-94
2021/07/05 02:48:10;;;;;;;13.95;10.50;;;24.80;99.70;;;;;;4883679;29;20503;-94
2021/07/05 02:50:37;;;;;;;12.77;9.95;;;24.90;99.70;;;;;;4899949;29;20382;-93
2021/07/05 02:53:04;;;;;;;11.70;9.85;;;24.80;99.70;;;;;;4883295;29;20085;-94
2021/07/05 02:55:30;;;;;;;11.75;9.95;;;24.80;99.70;;;;;;4868286;29;20060;-93
2021/07/05 02:57:56;;;;;;;12.18;9.98;;;24.80;99.70;;;;;;4901723;29;20467;-95
2021/07/05 03:00:34;;;;;;;12.68;10.13;;;24.80;99.70;;;;;;4901343;29;20043;-95
2021/07/05 03:03:00;;;;;;;11.85;9.73;;;24.80;99.70;;;;;;4883332;29;20052;-95
2021/07/05 03:05:28;;;;;;;12.70;10.18;;;24.80;99.70;;;;;;4882933;29;20562;-94
2021/07/05 03:07:54;;;;;;;11.38;9.23;;;24.80;99.70;;;;;;4883191;29;20143;-95
2021/07/05 03:10:25;;;;;;;10.63;9.27;;;24.80;99.70;;;;;;4868016;29;20056;-94
2021/07/05 03:12:51;;;;;;;11.10;9.32;;;24.80;99.70;;;;;;4900134;29;20029;-94
2021/07/05 03:15:18;;;;;;;10.80;8.77;;;24.80;99.70;;;;;;4902624;29;20035;-93
2021/07/05 03:17:45;;;;;;;10.73;8.50;;;24.80;99.70;;;;;;4900814;29;20025;-95
2021/07/05 03:20:19;;;;;;;11.38;9.10;;;24.80;99.70;;;;;;4882733;29;20029;-94
2021/07/05 03:22:46;;;;;;;9.80;8.40;;;24.80;99.70;;;;;;4882881;29;20036;-94
2021/07/05 03:25:13;;;;;;;10.02;8.30;;;24.80;99.70;;;;;;4882667;29;20089;-94
2021/07/05 03:27:40;;;;;;;10.48;8.50;;;24.80;99.70;;;;;;4866917;29;20291;-94
2021/07/05 03:30:08;;;;;;;9.68;8.18;;;24.80;99.70;;;;;;4882717;29;20029;-94
2021/07/05 03:32:34;;;;;;;8.85;7.68;;;24.80;99.70;;;;;;4882468;29;20043;-94
2021/07/05 03:35:00;;;;;;;10.13;8.57;;;24.80;99.70;;;;;;4867528;29;20056;-95
2021/07/05 03:37:26;;;;;;;11.45;8.48;;;24.80;99.70;;;;;;4866964;29;20033;-96
2021/07/05 03:39:52;;;;;;;9.18;7.60;;;24.80;99.70;;;;;;4867365;29;20081;-96
2021/07/05 03:42:17;;;;;;;9.55;7.65;;;24.80;99.60;;;;;;4882684;29;20490;-94
2021/07/05 03:44:43;;;;;;;10.15;8.02;;;24.80;99.60;;;;;;4867057;29;20028;-94
2021/07/05 03:47:09;;;;;;;8.82;7.47;;;24.80;99.60;;;;;;4867291;29;20068;-94
2021/07/05 03:49:34;;;;;;;9.63;7.82;;;24.80;99.70;;;;;;4867094;29;20032;-94
2021/07/05 03:52:00;;;;;;;8.52;7.22;;;24.80;99.60;;;;;;4870111;29;20037;-94
2021/07/05 03:54:26;;;;;;;9.73;7.80;;;24.80;99.60;;;;;;4867820;29;20039;-94
2021/07/05 03:56:51;;;;;;;9.10;7.07;;;24.80;99.60;;;;;;4882607;29;20068;-94
2021/07/05 03:59:17;;;;;;;7.35;6.63;;;24.80;99.60;;;;;;4867034;29;20033;-94
2021/07/05 04:01:43;;;;;;;8.77;7.30;;;24.80;99.60;;;;;;4882571;29;20112;-94
2021/07/05 04:04:08;;;;;;;9.30;7.45;;;24.80;99.50;;;;;;4883193;29;20064;-95
2021/07/05 04:06:34;;;;;;;7.75;6.90;;;24.80;99.50;;;;;;4901278;29;20123;-94
2021/07/05 04:09:01;;;;;;;9.35;7.88;;;24.80;99.50;;;;;;4868076;29;20124;-96
2021/07/05 04:11:27;;;;;;;8.48;7.35;;;24.70;99.40;;;;;;4900308;29;20116;-94
2021/07/05 04:13:53;;;;;;;9.05;7.53;;;24.70;99.40;;;;;;4867994;29;20127;-96
2021/07/05 04:16:18;;;;;;;10.68;7.60;;;24.70;99.40;;;;;;4868795;29;20064;-95
2021/07/05 04:18:44;;;;;;;11.73;8.55;;;24.80;99.40;;;;;;4886895;29;20043;-96
2021/07/05 04:21:10;;;;;;;10.95;8.10;;;24.70;99.30;;;;;;4855558;29;20032;-94
2021/07/05 04:23:36;;;;;;;11.00;8.63;;;24.80;99.30;;;;;;4870582;29;20029;-94
2021/07/05 04:26:02;;;;;;;10.68;8.32;;;24.80;99.30;;;;;;4886378;29;20087;-95
2021/07/05 04:28:31;;;;;;;12.25;9.52;;;24.70;99.30;;;;;;4902786;29;20057;-92
2021/07/05 04:30:57;;;;;;;8.98;7.57;;;24.80;99.30;;;;;;4855788;29;20036;-95
2021/07/05 04:33:23;;;;;;;13.88;10.52;;;24.70;99.20;;;;;;4903601;29;20543;-95
2021/07/05 04:35:49;;;;;;;12.68;9.88;;;24.70;99.20;;;;;;4871541;29;20041;-95
2021/07/05 04:38:15;;;;;;;12.10;9.70;;;24.70;99.20;;;;;;4903615;29;20382;-94
2021/07/05 04:40:42;;;;;;;13.25;10.32;;;24.70;99.20;;;;;;4872099;29;20029;-95
2021/07/05 04:43:10;;;;;;;13.05;10.63;;;24.70;99.20;;;;;;4886847;29;20032;-94
2021/07/05 04:45:37;;;;;;;12.65;10.30;;;24.70;99.20;;;;;;4903106;29;20029;-94
2021/07/05 04:48:05;;;;;;;13.00;10.88;;;24.70;99.20;;;;;;4871639;29;20475;-95
2021/07/05 04:50:31;;;;;;;12.82;10.32;;;24.70;99.10;;;;;;4871028;29;20100;-91
2021/07/05 04:52:58;;;;;;;12.73;10.07;;;24.70;99.10;;;;;;4889412;29;20033;-94
2021/07/05 04:55:25;;;;;;;14.00;10.35;;;24.70;99.10;;;;;;4882183;29;20036;-94
2021/07/05 04:57:52;;;;;;;12.05;9.70;;;24.70;99.10;;;;;;4902708;29;20080;-95
2021/07/05 05:00:21;;;;;;;10.90;9.02;;;24.70;99.00;;;;;;4901885;29;20033;-95
2021/07/05 05:02:49;;;;;;;10.30;8.43;;;24.70;99.00;;;;;;4891744;29;20052;-96
2021/07/05 05:05:14;;;;;;;10.70;8.63;;;24.70;99.00;;;;;;4897159;29;20104;-95
2021/07/05 05:07:40;;;;;;;10.82;8.75;;;24.70;99.00;;;;;;4872806;29;20070;-94
2021/07/05 05:10:09;;;;;;;11.13;7.85;;;24.70;98.90;;;;;;4870993;29;20037;-95
2021/07/05 05:12:35;;;;;;;10.77;8.20;;;24.70;98.90;;;;;;4887462;29;20072;-95
2021/07/05 05:15:02;;;;;;;9.40;7.90;;;24.70;98.90;;;;;;4888151;29;20476;-95
2021/07/05 05:17:28;;;;;;;8.93;6.88;;;24.70;98.90;;;;;;4869863;29;20040;-94
2021/07/05 05:19:54;;;;;;;8.07;6.43;;;24.70;98.90;;;;;;4885007;29;20851;-94
2021/07/05 05:22:19;;;;;;;9.05;7.18;;;24.70;98.90;;;;;;4901820;29;20089;-95
2021/07/05 05:24:45;;;;;;;7.00;6.20;;;24.70;98.90;;;;;;4884804;29;20040;-94
2021/07/05 05:27:11;;;;;;;7.00;6.20;;;24.70;98.90;;;;;;4869447;29;20445;-96
2021/07/05 05:29:38;;;;;;;8.15;6.15;;;24.70;98.90;;;;;;4869370;29;20387;-93
2021/07/05 05:32:04;;;;;;;6.55;5.85;;;24.70;98.90;;;;;;4902436;29;20029;-95
2021/07/05 05:34:30;;;;;;;6.13;5.43;;;24.70;98.80;;;;;;4886895;29;20052;-95
2021/07/05 05:36:56;;;;;;;6.90;5.72;;;24.70;98.80;;;;;;4904123;29;20092;-95
2021/07/05 05:39:22;;;;;;;6.72;5.80;;;24.70;98.80;;;;;;4887654;29;20040;-95
2021/07/05 05:41:47;;;;;;;7.45;5.85;;;24.70;98.80;;;;;;4870771;29;20120;-94
2021/07/05 05:44:13;;;;;;;7.10;5.78;;;24.70;98.80;;;;;;4855077;29;20028;-95
2021/07/05 05:46:39;;;;;;;7.72;5.70;;;24.70;98.80;;;;;;4855680;29;20041;-94
2021/07/05 05:49:05;;;;;;;7.53;6.15;;;24.70;98.80;;;;;;4872721;29;20036;-94
2021/07/05 05:51:32;;;;;;;6.55;5.30;;;24.70;98.80;;;;;;4904587;29;20039;-95
2021/07/05 05:53:59;;;;;;;7.03;5.75;;;24.70;98.80;;;;;;4870144;29;20458;-96
2021/07/05 05:56:26;;;;;;;6.80;5.53;;;24.70;98.70;;;;;;4886177;29;20043;-95
2021/07/05 05:58:54;;;;;;;7.82;5.18;;;24.70;98.70;;;;;;4905526;29;20063;-96
2021/07/05 06:01:20;;;;;;;7.22;6.00;;;24.70;98.70;;;;;;4904111;29;20112;-96
2021/07/05 06:03:45;;;;;;;7.47;5.80;;;24.70;98.70;;;;;;4874311;29;20190;-96
2021/07/05 06:06:11;;;;;;;6.05;5.10;;;24.70;98.70;;;;;;5118887;24;20079;-96
2021/07/05 06:08:37;;;;;;;6.45;5.38;;;24.70;98.70;;;;;;4902460;29;20060;-96
2021/07/05 06:11:03;;;;;;;6.40;5.20;;;24.70;98.70;;;;;;4885744;29;20039;-96
2021/07/05 06:13:28;;;;;;;5.90;4.57;;;24.70;98.80;;;;;;4887549;29;20040;-95
2021/07/05 06:15:54;;;;;;;7.85;5.47;;;24.70;99.00;;;;;;4908393;29;20034;-96
2021/07/05 06:18:20;;;;;;;6.00;5.00;;;24.70;99.10;;;;;;4893008;29;20132;-96
2021/07/05 06:20:46;;;;;;;6.55;4.97;;;24.70;99.10;;;;;;4918668;29;20032;-94
2021/07/05 06:23:27;;;;;;;6.93;5.00;;;24.70;99.10;;;;;;4904387;29;20032;-94
2021/07/05 06:26:00;;;;;;;5.55;4.35;;;24.70;99.10;;;;;;4898128;29;20104;-94
2021/07/05 06:28:30;;;;;;;6.35;4.47;;;24.70;99.00;;;;;;4904480;29;20051;-96
2021/07/05 06:30:57;;;;;;;5.28;4.30;;;24.70;98.90;;;;;;4886309;29;20123;-96
2021/07/05 06:33:23;;;;;;;5.85;4.32;;;24.70;98.90;;;;;;4885246;29;20062;-96
2021/07/05 06:35:49;;;;;;;5.32;3.80;;;24.70;98.80;;;;;;4901352;29;20463;-96
2021/07/05 06:38:17;;;;;;;5.80;3.88;;;24.70;98.80;;;;;;4887714;29;20082;-95
2021/07/05 06:40:48;;;;;;;4.63;3.42;;;24.70;98.70;;;;;;4888078;29;20033;-96
2021/07/05 06:43:14;;;;;;;5.35;3.70;;;24.70;98.70;;;;;;4891966;29;20040;-95
2021/07/05 06:45:41;;;;;;;5.78;3.70;;;24.60;98.70;;;;;;4909600;29;20029;-95
2021/07/05 06:48:08;;;;;;;4.20;3.30;;;24.70;98.70;;;;;;4891227;29;20184;-96
2021/07/05 06:50:34;;;;;;;4.22;3.35;;;24.70;98.70;;;;;;4889586;29;20032;-92
2021/07/05 06:53:00;;;;;;;5.47;3.50;;;24.70;98.70;;;;;;4911701;29;20089;-95
2021/07/05 06:55:26;;;;;;;5.10;3.45;;;24.70;98.60;;;;;;4893912;29;20033;-93
2021/07/05 06:57:52;;;;;;;5.13;3.50;;;24.60;98.60;;;;;;4902570;29;20024;-94
2021/07/05 07:00:24;;;;;;;4.82;3.25;;;24.70;98.60;;;;;;4885196;29;20041;-95
2021/07/05 07:02:50;;;;;;;4.75;3.10;;;24.70;98.60;;;;;;4889587;29;20032;-94
2021/07/05 07:05:20;;;;;;;6.07;3.20;;;24.70;98.50;;;;;;4890618;29;20051;-96
2021/07/05 07:07:51;;;;;;;4.28;2.50;;;24.70;98.50;;;;;;5028740;23;20072;-94
2021/07/05 07:10:26;;;;;;;3.60;2.63;;;24.60;98.50;;;;;;5106220;23;20044;-95
2021/07/05 07:13:12;;;;;;;3.40;2.20;;;24.60;98.40;;;;;;5345510;23;20061;-96
2021/07/05 07:23:36;;;;;;;3.20;2.33;;;24.60;98.70;;;;;;1236904;23;20220;-91
2021/07/05 07:26:05;;;;;;;2.40;1.92;;;24.60;98.70;;;;;;5700044;23;20114;-94
2021/07/05 07:32:18;;;;;;;4.43;2.55;;;24.70;98.90;;;;;;5637856;23;20043;31
2021/07/05 08:17:31;;;;;;;;;;;;;;;;;;;;;
2021/07/05 08:20:32;;;;;;;3.10;1.85;;;24.50;98.50;;;;;;4833328;29;20133;-96
2021/07/05 08:23:07;;;;;;;2.75;2.25;;;24.50;98.60;;;;;;4823085;29;20047;-96
2021/07/05 08:25:44;;;;;;;4.18;2.05;;;24.50;98.60;;;;;;4819675;29;20037;-96
2021/07/05 08:28:15;;;;;;;2.70;1.88;;;24.50;98.60;;;;;;4832464;29;20121;-96
2021/07/05 08:33:31;;;;;;;3.28;2.10;;;24.50;98.50;;;;;;4824168;29;20038;-96
2021/07/05 08:36:04;;;;;;;2.90;1.80;;;24.50;98.50;;;;;;4843315;29;20045;-96
2021/07/05 08:38:30;;;;;;;2.58;1.50;;;24.60;98.50;;;;;;4833834;29;20094;-96
2021/07/05 08:41:21;;;;;;;3.05;1.60;;;24.50;98.50;;;;;;4832520;29;20034;-96
2021/07/05 08:43:51;;;;;;;2.75;1.77;;;24.50;98.50;;;;;;4831820;29;20037;-96
2021/07/05 08:46:25;;;;;;;3.20;1.67;;;24.50;98.60;;;;;;4830354;29;20022;-95
2021/07/05 08:49:04;;;;;;;;;;;;;;;;;;;;;
2021/07/05 08:51:37;;;;;;;3.15;1.65;;;24.60;98.60;;;;;;4827942;29;20081;-94
2021/07/05 08:56:41;;;;;;;3.72;2.20;;;24.50;98.60;;;;;;5607031;23;20036;-93
2021/07/05 09:02:24;;;;;;;4.75;2.90;;;24.60;98.60;;;;;;5473293;23;20068;-95
2021/07/05 09:04:53;;;;;;;4.43;3.13;;;24.50;98.60;;;;;;5131956;23;20059;-96
2021/07/05 09:07:32;;;;;;;4.38;3.25;;;24.50;98.60;;;;;;4922703;29;20032;-96
2021/07/05 09:12:33;;;;;;;5.38;3.10;;;24.60;98.80;;;;;;5883118;23;20208;-95
2021/07/05 09:15:33;;;;;;;4.22;2.92;;;24.60;98.80;;;;;;4929407;29;20032;-94
2021/07/05 09:17:59;;;;;;;4.50;3.40;;;24.60;98.80;;;;;;4915679;29;20061;-95
2021/07/05 09:20:25;;;;;;;5.18;3.22;;;24.60;98.80;;;;;;4924434;29;20028;-95
2021/07/05 09:23:14;;;;;;;4.43;3.22;;;24.60;98.70;;;;;;4923933;29;20042;-95
2021/07/05 09:25:42;;;;;;;5.22;2.92;;;24.60;98.50;;;;;;4908638;29;20043;-96
2021/07/05 09:28:08;;;;;;;3.70;2.97;;;24.60;98.50;;;;;;4923989;29;20106;-95
2021/07/05 09:30:41;;;;;;;3.83;2.72;;;24.60;98.50;;;;;;4907605;29;20076;-95
2021/07/05 09:35:43;;;;;;;3.55;2.53;;;24.60;98.40;;;;;;5050160;23;20067;-95
2021/07/05 09:38:49;;;;;;;;;;;;;;;;;;;;;
2021/07/05 09:41:34;;;;;;;3.60;2.30;;;24.60;98.30;;;;;;4938204;29;20051;-94
2021/07/05 09:44:03;;;;;;;22.02;4.03;;;24.60;98.40;;;;;;4909891;29;20028;-86
2021/07/05 09:46:37;;;;;;;4.32;2.95;;;24.60;98.70;;;;;;4918393;29;20044;-86
2021/07/05 09:49:17;;;;;;;4.25;2.15;;;24.80;98.60;;;;;;4901865;29;20028;-85
2021/07/05 09:51:45;;;;;;;2.42;2.10;;;24.90;98.50;;;;;;4901600;29;20036;-85
2021/07/05 09:54:16;;;;;;;3.47;2.40;;;24.90;98.40;;;;;;4901300;29;20027;-86
2021/07/05 09:56:41;;;;;;;3.95;3.17;;;25.00;98.50;;;;;;4917905;29;20383;-84
2021/07/05 09:59:16;;;;;;;4.53;3.38;;;25.00;98.50;;;;;;4918202;29;20039;-83
2021/07/05 10:01:46;;;;;;;4.38;3.28;;;25.00;98.40;;;;;;4901420;29;20475;-84
2021/07/05 10:04:32;;;;;;;4.97;3.72;;;25.00;98.40;;;;;;4918378;29;20032;-84
2021/07/05 10:07:00;;;;;;;4.03;3.30;;;25.00;98.30;;;;;;4901592;29;20050;-84
2021/07/05 10:09:46;;;;;;;4.47;3.72;;;25.00;98.20;;;;;;4883348;29;20029;-83
2021/07/05 10:12:26;;;;;;;4.15;3.70;;;25.00;98.20;;;;;;4918199;29;20096;-84
2021/07/05 10:15:06;;;;;;;4.93;3.78;;;25.00;98.10;;;;;;4900738;29;20024;-84
2021/07/05 10:17:40;;;;;;;4.68;3.90;;;25.00;98.10;;;;;;4917775;29;20028;-84
2021/07/05 10:20:07;;;;;;;;;;;25.00;98.10;;;;;;4918395;29;20039;-85
2021/07/05 10:22:33;;;;;;;4.20;3.80;;;25.00;98.00;;;;;;4900726;29;19907;-85
2021/07/05 10:24:59;;;;;;;4.15;3.25;;;25.00;98.00;;;;;;4900906;29;20489;-85
2021/07/05 10:27:25;;;;;;;3.97;3.35;;;24.90;98.00;;;;;;4917333;29;20092;-84
2021/07/05 10:29:51;;;;;;;4.80;3.60;;;25.00;98.00;;;;;;4901094;29;20430;-84
2021/07/05 10:32:18;;;;;;;3.28;2.97;;;25.00;98.00;;;;;;4917580;29;20067;-85
2021/07/05 10:34:49;;;;;;;3.28;2.97;;;25.00;97.90;;;;;;4900575;29;20029;-85
2021/07/05 10:37:27;;;;;;;4.00;2.92;;;24.90;97.90;;;;;;4899899;29;20494;-86
2021/07/05 10:39:54;;;;;;;3.03;2.60;;;25.00;97.90;;;;;;4900862;29;20071;-84
2021/07/05 10:42:40;;;;;;;3.55;3.00;;;25.00;97.90;;;;;;4917441;29;20097;-84
2021/07/05 10:45:09;;;;;;;4.25;3.10;;;25.00;97.90;;;;;;4901036;29;20035;-84
2021/07/05 10:47:45;;;;;;;3.10;2.75;;;25.00;97.70;;;;;;4900184;29;20062;-83
2021/07/05 10:50:41;;;;;;;3.20;2.75;;;25.00;97.50;;;;;;4917590;29;20067;-85
2021/07/05 10:53:08;;;;;;;3.75;3.13;;;25.00;97.30;;;;;;4900550;29;20471;-86
2021/07/05 10:55:43;;;;;;;2.90;2.60;;;24.90;97.20;;;;;;4900181;29;20032;-85
2021/07/05 10:58:29;;;;;;;2.83;2.45;;;24.90;97.10;;;;;;4917701;29;20028;-85
2021/07/05 11:00:57;;;;;;;2.58;2.38;;;24.90;97.00;;;;;;4900491;29;20455;-83
2021/07/05 11:03:38;;;;;;;2.42;1.98;;;24.90;96.90;;;;;;4917257;29;20062;-85
2021/07/05 11:06:29;;;;;;;1.95;1.75;;;24.90;96.70;;;;;;4900073;29;20120;-86
2021/07/05 11:08:56;;;;;;;2.05;1.85;;;24.90;96.60;;;;;;4900412;29;20127;-86
2021/07/05 11:11:32;;;;;;;1.98;1.75;;;24.90;96.60;;;;;;4900195;29;20483;-87
2021/07/05 11:14:20;;;;;;;2.10;1.52;;;24.80;96.60;;;;;;4901211;29;20489;-86
2021/07/05 11:17:01;;;;;;;2.78;2.00;;;24.90;96.60;;;;;;4900680;29;20043;-82
2021/07/05 11:19:35;;;;;;;1.70;1.60;;;24.90;96.70;;;;;;4917745;29;20233;-86
2021/07/05 11:22:05;;;;;;;1.83;1.52;;;24.90;96.90;;;;;;4900716;29;20028;-85
2021/07/05 11:24:39;;;;;;;2.63;1.50;;;25.00;97.00;;;;;;4917709;29;20028;-87
2021/07/05 11:27:23;;;;;;;1.20;1.10;;;25.00;97.10;;;;;;4917649;29;20032;-86
2021/07/05 11:29:49;;;;;;;2.72;1.40;;;25.00;97.10;;;;;;4900586;29;20039;-85
2021/07/05 11:32:34;;;;;;;2.78;1.58;;;25.00;97.10;;;;;;4885703;29;20036;-88
2021/07/05 11:35:00;;;;;;;1.73;1.40;;;25.00;97.10;;;;;;4901513;29;20036;-87
2021/07/05 11:37:25;;;;;;;45.50;11.35;;;25.00;97.00;;;;;;4917585;29;20479;-89
2021/07/05 11:39:54;;;;;;;34.10;11.02;;;25.00;96.90;;;;;;4917490;29;20406;-86
2021/07/05 11:42:42;;;;;;;28.20;9.25;;;25.00;96.90;;;;;;4901148;29;20036;-88
2021/07/05 11:45:09;;;;;;;15.95;6.80;;;25.00;96.90;;;;;;4900773;29;20115;-92
2021/07/05 11:47:43;;;;;;;12.23;5.70;;;25.00;97.00;;;;;;4884951;29;20115;-88
2021/07/05 11:50:21;;;;;;;;;;;25.00;97.00;;;;;;4900511;29;20055;-87
2021/07/05 11:53:13;;;;;;;7.88;3.70;;;25.10;97.00;;;;;;4917400;29;19911;-88
2021/07/05 11:55:39;;;;;;;9.13;3.20;;;25.10;97.10;;;;;;4890310;29;20139;-84
2021/07/05 11:58:07;;;;;;;5.72;2.80;;;25.10;97.10;;;;;;4885178;29;20479;-84
2021/07/05 12:00:35;;;;;;;7.68;2.60;;;25.10;97.10;;;;;;4900725;29;20490;-85
2021/07/05 12:03:10;;;;;;;3.40;1.75;;;25.10;97.10;;;;;;4900218;29;20051;-87
2021/07/05 12:05:44;;;;;;;3.95;1.92;;;25.10;97.10;;;;;;4916884;29;20028;-85
2021/07/05 12:08:14;;;;;;;4.43;1.45;;;25.10;97.10;;;;;;4917308;29;20497;-87
2021/07/05 12:10:42;;;;;;;5.72;1.75;;;25.10;97.20;;;;;;4899907;29;20064;-90
2021/07/05 12:13:23;;;;;;;4.85;1.55;;;25.10;97.20;;;;;;4916993;29;20072;-90
2021/07/05 12:16:03;;;;;;;4.25;1.40;;;25.10;97.30;;;;;;4884185;29;20036;-85
2021/07/05 12:18:28;;;;;;;4.15;1.35;;;25.10;97.20;;;;;;4917520;29;20028;-89
2021/07/05 12:20:59;;;;;;;3.45;1.50;;;25.10;97.20;;;;;;4919185;29;20036;-85
2021/07/05 12:23:34;;;;;;;1.58;1.23;;;25.10;97.20;;;;;;4888859;29;20047;-85
2021/07/05 12:26:23;;;;;;;4.03;1.30;;;25.10;97.10;;;;;;4899940;29;20036;-87
2021/07/05 12:29:24;;;;;;;2.90;1.10;;;25.10;97.00;;;;;;4899641;29;20123;-90
2021/07/05 12:31:59;;;;;;;1.48;0.95;;;25.10;96.90;;;;;;4850725;29;20036;-85
2021/07/05 12:34:52;;;;;;;1.80;1.00;;;25.10;97.00;;;;;;4899706;29;20453;-85
2021/07/05 12:37:31;;;;;;;3.03;0.93;;;25.10;97.10;;;;;;4900828;29;20048;-88
2021/07/05 12:40:00;;;;;;;3.42;1.70;;;25.10;97.20;;;;;;4903201;29;20147;-86
2021/07/05 12:42:33;;;;;;;3.10;1.55;;;25.10;97.10;;;;;;4919897;29;20032;-85
2021/07/05 12:45:02;;;;;;;3.35;1.20;;;25.10;97.00;;;;;;4920314;29;20115;-85
2021/07/05 12:47:29;;;;;;;1.20;1.10;;;25.10;96.90;;;;;;4919875;29;20164;-84
2021/07/05 12:49:55;;;;;;;1.48;1.00;;;25.20;97.00;;;;;;4919782;29;20097;-84
2021/07/05 12:52:21;;;;;;;1.50;0.93;;;25.20;97.00;;;;;;4902957;29;20039;-84
2021/07/05 12:54:47;;;;;;;2.08;0.82;;;25.30;97.10;;;;;;4886767;29;20578;-84
2021/07/05 12:57:16;;;;;;;2.30;1.20;;;25.30;97.10;;;;;;4903131;29;20055;-90
2021/07/05 13:00:00;;;;;;;2.00;1.00;;;25.30;97.10;;;;;;4919284;29;20052;-86
2021/07/05 13:02:29;;;;;;;;;;;25.30;97.20;;;;;;4920245;29;20036;-86
2021/07/05 13:05:03;;;;;;;1.65;1.00;;;25.30;97.10;;;;;;4920060;29;20006;-86
2021/07/05 13:07:29;;;;;;;4.00;1.52;;;25.30;97.30;;;;;;4919879;29;20091;-88
2021/07/05 13:10:00;;;;;;;2.15;1.70;;;25.30;97.50;;;;;;4920288;29;20044;-88
2021/07/05 13:12:26;;;;;;;3.50;2.30;;;25.30;97.50;;;;;;4920171;29;20035;-88
2021/07/05 13:14:52;;;;;;;2.30;2.10;;;25.30;97.50;;;;;;4902932;29;20029;-88
2021/07/05 13:17:20;;;;;;;3.08;2.50;;;25.30;97.50;;;;;;4887229;29;20036;-88
2021/07/05 13:19:48;;;;;;;2.40;2.15;;;25.30;97.50;;;;;;4902326;29;20037;-88
2021/07/05 13:22:24;;;;;;;3.75;2.80;;;25.30;97.60;;;;;;4902348;29;20040;-89
2021/07/05 13:24:53;;;;;;;3.63;2.63;;;25.30;97.70;;;;;;4902523;29;20059;-87
2021/07/05 13:27:28;;;;;;;3.15;2.72;;;25.30;97.70;;;;;;4919460;29;20036;-88
2021/07/05 13:29:56;;;;;;;2.35;2.15;;;25.30;97.80;;;;;;4902815;29;20035;-87
2021/07/05 13:32:26;;;;;;;2.55;2.30;;;25.30;97.80;;;;;;4919592;29;20063;-87
2021/07/05 13:35:04;;;;;;;2.45;2.25;;;25.30;97.90;;;;;;4902699;29;20060;-87
2021/07/05 13:37:49;;;;;;;2.45;2.25;;;25.30;98.10;;;;;;4919570;29;20060;-88
2021/07/05 13:40:20;;;;;;;2.50;2.30;;;25.30;98.20;;;;;;4902841;29;20416;-87
2021/07/05 13:42:52;;;;;;;2.40;2.20;;;25.30;98.30;;;;;;4919433;29;20020;-88
2021/07/05 13:45:26;;;;;;;2.60;2.15;;;25.30;98.30;;;;;;4919639;29;20032;-88
2021/07/05 13:47:53;;;;;;;2.28;1.95;;;25.30;98.30;;;;;;4919033;29;20058;-88
2021/07/05 13:50:46;;;;;;;2.15;1.92;;;25.30;98.40;;;;;;4918726;29;20032;-87
2021/07/05 13:53:25;;;;;;;2.67;1.85;;;25.30;98.50;;;;;;4918976;29;20032;-88
2021/07/05 13:56:08;;;;;;;2.08;1.88;;;25.30;98.60;;;;;;4919102;29;20103;-88
2021/07/05 13:58:36;;;;;;;2.85;1.80;;;25.20;98.60;;;;;;4918867;29;20030;-88
2021/07/05 14:01:13;;;;;;;2.45;1.77;;;25.30;98.60;;;;;;4919387;29;20074;-89
2021/07/05 14:03:38;;;;;;;2.13;1.75;;;25.20;98.60;;;;;;4919014;29;20056;-88
2021/07/05 14:06:07;;;;;;;1.80;1.70;;;25.20;98.60;;;;;;4919439;29;20512;-89
2021/07/05 14:08:34;;;;;;;1.55;1.40;;;25.20;98.70;;;;;;4919461;29;20039;-88